Aviation Digital Data Service (ADDS)

Output produced by METARs form (0006 UTC 25 April 2019)
found at http://www.aviationweather.gov/metar/data/
 
METAR text: RJTT 242330Z 17004KT 120V250 9999 FEW007 SCT020 BKN060 21/18 Q1004 NOSIG RMK 1ST007 3CU020 7SC060 A2966
Conditions at: RJTT (TOKYO INTL AIRPO, JP) observed 2330 UTC 24 April 2019
Temperature: 21.0°C (70°F)
Dewpoint: 18.0°C (64°F) [RH = 83%]
Pressure (altimeter): 29.65 inches Hg (1004.0 mb)
Winds: from the S (170 degrees) at 5 MPH (4 knots; 2.1 m/s)
Visibility: 6 or more miles (10+ km)
Ceiling: 6000 feet AGL
Clouds: few clouds at 700 feet AGL
scattered clouds at 2000 feet AGL
broken clouds at 6000 feet AGL
Weather: no significant weather observed at this time

METAR text: RJTT 242300Z 20009KT 9999 FEW007 SCT008 BKN040 20/18 Q1004 NOSIG RMK 1ST007 3ST008 7SC040 A2967
Conditions at: RJTT (TOKYO INTL AIRPO, JP) observed 2300 UTC 24 April 2019
Temperature: 20.0°C (68°F)
Dewpoint: 18.0°C (64°F) [RH = 88%]
Pressure (altimeter): 29.65 inches Hg (1004.0 mb)
Winds: from the SSW (200 degrees) at 10 MPH (9 knots; 4.6 m/s)
Visibility: 6 or more miles (10+ km)
Ceiling: 4000 feet AGL
Clouds: few clouds at 700 feet AGL
scattered clouds at 800 feet AGL
broken clouds at 4000 feet AGL
Weather: no significant weather observed at this time

METAR text: RJTT 242230Z 19013KT 9999 FEW007 SCT008 BKN015 20/18 Q1005 NOSIG RMK 1ST007 3ST008 5SC015 A2968
Conditions at: RJTT (TOKYO INTL AIRPO, JP) observed 2230 UTC 24 April 2019
Temperature: 20.0°C (68°F)
Dewpoint: 18.0°C (64°F) [RH = 88%]
Pressure (altimeter): 29.68 inches Hg (1005.0 mb)
Winds: from the S (190 degrees) at 15 MPH (13 knots; 6.7 m/s)
Visibility: 6 or more miles (10+ km)
Ceiling: 1500 feet AGL
Clouds: few clouds at 700 feet AGL
scattered clouds at 800 feet AGL
broken clouds at 1500 feet AGL
Weather: no significant weather observed at this time

METAR text: RJTT 242200Z 20016KT 9999 FEW007 SCT008 BKN020 19/18 Q1005 NOSIG RMK 1ST007 3ST008 7SC020 A2969
Conditions at: RJTT (TOKYO INTL AIRPO, JP) observed 2200 UTC 24 April 2019
Temperature: 19.0°C (66°F)
Dewpoint: 18.0°C (64°F) [RH = 94%]
Pressure (altimeter): 29.68 inches Hg (1005.0 mb)
Winds: from the SSW (200 degrees) at 18 MPH (16 knots; 8.2 m/s)
Visibility: 6 or more miles (10+ km)
Ceiling: 2000 feet AGL
Clouds: few clouds at 700 feet AGL
scattered clouds at 800 feet AGL
broken clouds at 2000 feet AGL
Weather: no significant weather observed at this time

METAR text: RJTT 242130Z 19017KT 9999 FEW007 SCT008 BKN020 19/18 Q1005 NOSIG RMK 1ST007 4ST008 6CU020 A2969
Conditions at: RJTT (TOKYO INTL AIRPO, JP) observed 2130 UTC 24 April 2019
Temperature: 19.0°C (66°F)
Dewpoint: 18.0°C (64°F) [RH = 94%]
Pressure (altimeter): 29.68 inches Hg (1005.0 mb)
Winds: from the S (190 degrees) at 20 MPH (17 knots; 8.7 m/s)
Visibility: 6 or more miles (10+ km)
Ceiling: 2000 feet AGL
Clouds: few clouds at 700 feet AGL
scattered clouds at 800 feet AGL
broken clouds at 2000 feet AGL
Weather: no significant weather observed at this time

METAR text: RJTT 242119Z 20015KT 9999 -SHRA FEW005 SCT010 BKN020 19/18 Q1005 RMK 1ST005 4CU010 6CU020 A2969
Conditions at: RJTT (TOKYO INTL AIRPO, JP) observed 2119 UTC 24 April 2019
Temperature: 19.0°C (66°F)
Dewpoint: 18.0°C (64°F) [RH = 94%]
Pressure (altimeter): 29.68 inches Hg (1005.0 mb)
Winds: from the SSW (200 degrees) at 17 MPH (15 knots; 7.7 m/s)
Visibility: 6 or more miles (10+ km)
Ceiling: 2000 feet AGL
Clouds: few clouds at 500 feet AGL
scattered clouds at 1000 feet AGL
broken clouds at 2000 feet AGL
Weather: -SHRA  (light rain showers)

METAR text: RJTT 242100Z 20014KT 9999 -SHRA FEW003 SCT006 BKN010 19/18 Q1005 NOSIG RMK 1ST003 4ST006 6CU010 A2969
Conditions at: RJTT (TOKYO INTL AIRPO, JP) observed 2100 UTC 24 April 2019
Temperature: 19.0°C (66°F)
Dewpoint: 18.0°C (64°F) [RH = 94%]
Pressure (altimeter): 29.68 inches Hg (1005.0 mb)
Winds: from the SSW (200 degrees) at 16 MPH (14 knots; 7.2 m/s)
Visibility: 6 or more miles (10+ km)
Ceiling: 1000 feet AGL
Clouds: few clouds at 300 feet AGL
scattered clouds at 600 feet AGL
broken clouds at 1000 feet AGL
Weather: -SHRA  (light rain showers)

METAR text: RJTT 242041Z 19013KT 9999 -SHRA FEW003 SCT006 BKN011 19/18 Q1005 RMK 1ST003 4ST006 6CU011 A2969
Conditions at: RJTT (TOKYO INTL AIRPO, JP) observed 2041 UTC 24 April 2019
Temperature: 19.0°C (66°F)
Dewpoint: 18.0°C (64°F) [RH = 94%]
Pressure (altimeter): 29.68 inches Hg (1005.0 mb)
Winds: from the S (190 degrees) at 15 MPH (13 knots; 6.7 m/s)
Visibility: 6 or more miles (10+ km)
Ceiling: 1100 feet AGL
Clouds: few clouds at 300 feet AGL
scattered clouds at 600 feet AGL
broken clouds at 1100 feet AGL
Weather: -SHRA  (light rain showers)

METAR text: RJTT 242030Z 20013KT 9999 -SHRA FEW003 BKN006 BKN011 19/18 Q1005 TEMPO 4000 -SHRA BR RMK 1ST003 5ST006 6CU011 A2969
Conditions at: RJTT (TOKYO INTL AIRPO, JP) observed 2030 UTC 24 April 2019
Temperature: 19.0°C (66°F)
Dewpoint: 18.0°C (64°F) [RH = 94%]
Pressure (altimeter): 29.68 inches Hg (1005.0 mb)
Winds: from the SSW (200 degrees) at 15 MPH (13 knots; 6.7 m/s)
Visibility: 6 or more miles (10+ km)
Ceiling: 600 feet AGL
Clouds: few clouds at 300 feet AGL
broken clouds at 600 feet AGL
broken clouds at 1100 feet AGL
Weather: -SHRA  (light rain showers)

METAR text: RJTT 242000Z 21013KT 8000 -SHRA FEW003 BKN006 BKN011 19/18 Q1005 TEMPO 4000 -SHRA BR RMK 1ST003 5ST006 6CU011 A2970
Conditions at: RJTT (TOKYO INTL AIRPO, JP) observed 2000 UTC 24 April 2019
Temperature: 19.0°C (66°F)
Dewpoint: 18.0°C (64°F) [RH = 94%]
Pressure (altimeter): 29.68 inches Hg (1005.0 mb)
Winds: from the SSW (210 degrees) at 15 MPH (13 knots; 6.7 m/s)
Visibility: 5 miles ( 8 km)
Ceiling: 600 feet AGL
Clouds: few clouds at 300 feet AGL
broken clouds at 600 feet AGL
broken clouds at 1100 feet AGL
Weather: -SHRA  (light rain showers)

METAR text: RJTT 241930Z 19012KT 6000 -SHRA BR FEW003 BKN006 BKN011 19/18 Q1006 TEMPO 4000 -SHRA BR
Conditions at: RJTT (TOKYO INTL AIRPO, JP) observed 1930 UTC 24 April 2019
Temperature: 19.0°C (66°F)
Dewpoint: 18.0°C (64°F) [RH = 94%]
Pressure (altimeter): 29.70 inches Hg (1006.0 mb)
Winds: from the S (190 degrees) at 14 MPH (12 knots; 6.2 m/s)
Visibility: 4 miles ( 6 km)
Ceiling: 600 feet AGL
Clouds: few clouds at 300 feet AGL
broken clouds at 600 feet AGL
broken clouds at 1100 feet AGL
Weather: -SHRA BR  (light rain showers, mist)

METAR text: RJTT 241920Z 19013KT 6000 -SHRA BR FEW003 SCT004 BKN006 18/18 Q1005 RMK 1ST003 3ST004 5ST006 A2970 BR S
Conditions at: RJTT (TOKYO INTL AIRPO, JP) observed 1920 UTC 24 April 2019
Temperature: 18.0°C (64°F)
Dewpoint: 18.0°C (64°F) [RH = 100%]
Pressure (altimeter): 29.68 inches Hg (1005.0 mb)
Winds: from the S (190 degrees) at 15 MPH (13 knots; 6.7 m/s)
Visibility: 4 miles ( 6 km)
Ceiling: 600 feet AGL
Clouds: few clouds at 300 feet AGL
scattered clouds at 400 feet AGL
broken clouds at 600 feet AGL
Weather: -SHRA BR  (light rain showers, mist)

METAR text: RJTT 241900Z 19013KT 5000 -SHRA BR FEW003 SCT004 BKN006 18/18 Q1006 TEMPO 4000 -SHRA BR RMK 1ST003 3ST004 5ST006 A2971
Conditions at: RJTT (TOKYO INTL AIRPO, JP) observed 1900 UTC 24 April 2019
Temperature: 18.0°C (64°F)
Dewpoint: 18.0°C (64°F) [RH = 100%]
Pressure (altimeter): 29.70 inches Hg (1006.0 mb)
Winds: from the S (190 degrees) at 15 MPH (13 knots; 6.7 m/s)
Visibility: 3 miles ( 5 km)
Ceiling: 600 feet AGL
Clouds: few clouds at 300 feet AGL
scattered clouds at 400 feet AGL
broken clouds at 600 feet AGL
Weather: -SHRA BR  (light rain showers, mist)

METAR text: RJTT 241830Z 18015KT 5000 -SHRA BR FEW003 SCT004 BKN006 18/18 Q1006 TEMPO 4000 -SHRA BR
Conditions at: RJTT (TOKYO INTL AIRPO, JP) observed 1830 UTC 24 April 2019
Temperature: 18.0°C (64°F)
Dewpoint: 18.0°C (64°F) [RH = 100%]
Pressure (altimeter): 29.70 inches Hg (1006.0 mb)
Winds: from the S (180 degrees) at 17 MPH (15 knots; 7.7 m/s)
Visibility: 3 miles ( 5 km)
Ceiling: 600 feet AGL
Clouds: few clouds at 300 feet AGL
scattered clouds at 400 feet AGL
broken clouds at 600 feet AGL
Weather: -SHRA BR  (light rain showers, mist)

METAR text: RJTT 241800Z 19015KT 5000 -SHRA BR FEW003 BKN006 BKN009 18/18 Q1006 TEMPO 4000 -SHRA BR RMK 1ST003 5ST006 6ST009 A2973
Conditions at: RJTT (TOKYO INTL AIRPO, JP) observed 1800 UTC 24 April 2019
Temperature: 18.0°C (64°F)
Dewpoint: 18.0°C (64°F) [RH = 100%]
Pressure (altimeter): 29.70 inches Hg (1006.0 mb)
Winds: from the S (190 degrees) at 17 MPH (15 knots; 7.7 m/s)
Visibility: 3 miles ( 5 km)
Ceiling: 600 feet AGL
Clouds: few clouds at 300 feet AGL
broken clouds at 600 feet AGL
broken clouds at 900 feet AGL
Weather: -SHRA BR  (light rain showers, mist)

METAR text: RJTT 241730Z 18016KT 6000 -SHRA BR FEW005 SCT006 BKN020 19/18 Q1007 TEMPO 4000 -SHRA BR FEW005 BKN008
Conditions at: RJTT (TOKYO INTL AIRPO, JP) observed 1730 UTC 24 April 2019
Temperature: 19.0°C (66°F)
Dewpoint: 18.0°C (64°F) [RH = 94%]
Pressure (altimeter): 29.73 inches Hg (1007.0 mb)
Winds: from the S (180 degrees) at 18 MPH (16 knots; 8.2 m/s)
Visibility: 4 miles ( 6 km)
Ceiling: 2000 feet AGL
Clouds: few clouds at 500 feet AGL
scattered clouds at 600 feet AGL
broken clouds at 2000 feet AGL
Weather: -SHRA BR  (light rain showers, mist)

METAR text: RJTT 241700Z 19014KT 6000 -SHRA BR FEW005 SCT006 BKN008 18/18 Q1007 NOSIG RMK 1ST005 3ST006 6ST008 A2976 BR S
Conditions at: RJTT (TOKYO INTL AIRPO, JP) observed 1700 UTC 24 April 2019
Temperature: 18.0°C (64°F)
Dewpoint: 18.0°C (64°F) [RH = 100%]
Pressure (altimeter): 29.73 inches Hg (1007.0 mb)
Winds: from the S (190 degrees) at 16 MPH (14 knots; 7.2 m/s)
Visibility: 4 miles ( 6 km)
Ceiling: 800 feet AGL
Clouds: few clouds at 500 feet AGL
scattered clouds at 600 feet AGL
broken clouds at 800 feet AGL
Weather: -SHRA BR  (light rain showers, mist)

METAR text: RJTT 241639Z 18015KT 6000 -SHRA FEW007 SCT009 BKN020 19/18 Q1008 RMK 1ST007 4ST009 6CU020 A2977
Conditions at: RJTT (TOKYO INTL AIRPO, JP) observed 1639 UTC 24 April 2019
Temperature: 19.0°C (66°F)
Dewpoint: 18.0°C (64°F) [RH = 94%]
Pressure (altimeter): 29.76 inches Hg (1008.0 mb)
Winds: from the S (180 degrees) at 17 MPH (15 knots; 7.7 m/s)
Visibility: 4 miles ( 6 km)
Ceiling: 2000 feet AGL
Clouds: few clouds at 700 feet AGL
scattered clouds at 900 feet AGL
broken clouds at 2000 feet AGL
Weather: -SHRA  (light rain showers)

METAR text: RJTT 241630Z 18015KT 6000 -SHRA BR FEW007 SCT009 BKN014 18/18 Q1008 TEMPO 4000 -SHRA BR FEW005 BKN008
Conditions at: RJTT (TOKYO INTL AIRPO, JP) observed 1630 UTC 24 April 2019
Temperature: 18.0°C (64°F)
Dewpoint: 18.0°C (64°F) [RH = 100%]
Pressure (altimeter): 29.76 inches Hg (1008.0 mb)
Winds: from the S (180 degrees) at 17 MPH (15 knots; 7.7 m/s)
Visibility: 4 miles ( 6 km)
Ceiling: 1400 feet AGL
Clouds: few clouds at 700 feet AGL
scattered clouds at 900 feet AGL
broken clouds at 1400 feet AGL
Weather: -SHRA BR  (light rain showers, mist)

METAR text: RJTT 241614Z 18015KT 6000 -SHRA BR FEW007 SCT009 BKN014 18/18 Q1008 RMK 1ST007 4ST009 6CU014 A2977 BR S
Conditions at: RJTT (TOKYO INTL AIRPO, JP) observed 1614 UTC 24 April 2019
Temperature: 18.0°C (64°F)
Dewpoint: 18.0°C (64°F) [RH = 100%]
Pressure (altimeter): 29.76 inches Hg (1008.0 mb)
Winds: from the S (180 degrees) at 17 MPH (15 knots; 7.7 m/s)
Visibility: 4 miles ( 6 km)
Ceiling: 1400 feet AGL
Clouds: few clouds at 700 feet AGL
scattered clouds at 900 feet AGL
broken clouds at 1400 feet AGL
Weather: -SHRA BR  (light rain showers, mist)

METAR text: RJTT 241600Z 18014KT 6000 -SHRA BR FEW008 SCT010 BKN025 18/18 Q1008 TEMPO 4000 -SHRA BR FEW005 BKN008 RMK 1ST008 4CU010 6CU025 A2979 BR S
Conditions at: RJTT (TOKYO INTL AIRPO, JP) observed 1600 UTC 24 April 2019
Temperature: 18.0°C (64°F)
Dewpoint: 18.0°C (64°F) [RH = 100%]
Pressure (altimeter): 29.76 inches Hg (1008.0 mb)
Winds: from the S (180 degrees) at 16 MPH (14 knots; 7.2 m/s)
Visibility: 4 miles ( 6 km)
Ceiling: 2500 feet AGL
Clouds: few clouds at 800 feet AGL
scattered clouds at 1000 feet AGL
broken clouds at 2500 feet AGL
Weather: -SHRA BR  (light rain showers, mist)

METAR text: RJTT 241530Z 19012KT 6000 -SHRA FEW008 SCT010 BKN020 18/17 Q1009 TEMPO 4000 -SHRA BR FEW005 BKN008
Conditions at: RJTT (TOKYO INTL AIRPO, JP) observed 1530 UTC 24 April 2019
Temperature: 18.0°C (64°F)
Dewpoint: 17.0°C (63°F) [RH = 94%]
Pressure (altimeter): 29.79 inches Hg (1009.0 mb)
Winds: from the S (190 degrees) at 14 MPH (12 knots; 6.2 m/s)
Visibility: 4 miles ( 6 km)
Ceiling: 2000 feet AGL
Clouds: few clouds at 800 feet AGL
scattered clouds at 1000 feet AGL
broken clouds at 2000 feet AGL
Weather: -SHRA  (light rain showers)

METAR text: RJTT 241500Z 18016KT 7000 -SHRA FEW009 SCT010 BKN020 19/18 Q1009 TEMPO FEW010 BKN013 RMK 1ST009 3CU010 6CU020 A2982
Conditions at: RJTT (TOKYO INTL AIRPO, JP) observed 1500 UTC 24 April 2019
Temperature: 19.0°C (66°F)
Dewpoint: 18.0°C (64°F) [RH = 94%]
Pressure (altimeter): 29.79 inches Hg (1009.0 mb)
Winds: from the S (180 degrees) at 18 MPH (16 knots; 8.2 m/s)
Visibility: 4 miles ( 7 km)
Ceiling: 2000 feet AGL
Clouds: few clouds at 900 feet AGL
scattered clouds at 1000 feet AGL
broken clouds at 2000 feet AGL
Weather: -SHRA  (light rain showers)

METAR text: RJTT 241430Z 18015KT 7000 -SHRA FEW010 BKN020 18/17 Q1010 NOSIG RMK 1CU010 7CU020 A2983
Conditions at: RJTT (TOKYO INTL AIRPO, JP) observed 1430 UTC 24 April 2019
Temperature: 18.0°C (64°F)
Dewpoint: 17.0°C (63°F) [RH = 94%]
Pressure (altimeter): 29.82 inches Hg (1010.0 mb)
Winds: from the S (180 degrees) at 17 MPH (15 knots; 7.7 m/s)
Visibility: 4 miles ( 7 km)
Ceiling: 2000 feet AGL
Clouds: few clouds at 1000 feet AGL
broken clouds at 2000 feet AGL
Weather: -SHRA  (light rain showers)

METAR text: RJTT 241400Z 18015KT 6000 -SHRA FEW010 BKN030 18/17 Q1010 NOSIG RMK 1CU010 7CU030 A2984
Conditions at: RJTT (TOKYO INTL AIRPO, JP) observed 1400 UTC 24 April 2019
Temperature: 18.0°C (64°F)
Dewpoint: 17.0°C (63°F) [RH = 94%]
Pressure (altimeter): 29.82 inches Hg (1010.0 mb)
Winds: from the S (180 degrees) at 17 MPH (15 knots; 7.7 m/s)
Visibility: 4 miles ( 6 km)
Ceiling: 3000 feet AGL
Clouds: few clouds at 1000 feet AGL
broken clouds at 3000 feet AGL
Weather: -SHRA  (light rain showers)

METAR text: RJTT 241330Z 18016KT 7000 -SHRA FEW015 SCT020 BKN030 19/17 Q1011 NOSIG RMK 1CU015 3CU020 7CU030 A2986
Conditions at: RJTT (TOKYO INTL AIRPO, JP) observed 1330 UTC 24 April 2019
Temperature: 19.0°C (66°F)
Dewpoint: 17.0°C (63°F) [RH = 88%]
Pressure (altimeter): 29.85 inches Hg (1011.0 mb)
Winds: from the S (180 degrees) at 18 MPH (16 knots; 8.2 m/s)
Visibility: 4 miles ( 7 km)
Ceiling: 3000 feet AGL
Clouds: few clouds at 1500 feet AGL
scattered clouds at 2000 feet AGL
broken clouds at 3000 feet AGL
Weather: -SHRA  (light rain showers)

METAR text: RJTT 241300Z 18015KT 9999 -SHRA FEW015 BKN025 19/17 Q1011 NOSIG RMK 1CU015 7CU025 A2987
Conditions at: RJTT (TOKYO INTL AIRPO, JP) observed 1300 UTC 24 April 2019
Temperature: 19.0°C (66°F)
Dewpoint: 17.0°C (63°F) [RH = 88%]
Pressure (altimeter): 29.85 inches Hg (1011.0 mb)
Winds: from the S (180 degrees) at 17 MPH (15 knots; 7.7 m/s)
Visibility: 6 or more miles (10+ km)
Ceiling: 2500 feet AGL
Clouds: few clouds at 1500 feet AGL
broken clouds at 2500 feet AGL
Weather: -SHRA  (light rain showers)

METAR text: RJTT 241230Z 18016KT 9999 -SHRA FEW015 BKN025 19/16 Q1012 NOSIG RMK 1CU015 7CU025 A2988
Conditions at: RJTT (TOKYO INTL AIRPO, JP) observed 1230 UTC 24 April 2019
Temperature: 19.0°C (66°F)
Dewpoint: 16.0°C (61°F) [RH = 83%]
Pressure (altimeter): 29.88 inches Hg (1012.0 mb)
Winds: from the S (180 degrees) at 18 MPH (16 knots; 8.2 m/s)
Visibility: 6 or more miles (10+ km)
Ceiling: 2500 feet AGL
Clouds: few clouds at 1500 feet AGL
broken clouds at 2500 feet AGL
Weather: -SHRA  (light rain showers)

METAR text: RJTT 241200Z 18013KT 9999 -SHRA FEW015 BKN025 19/16 Q1012 NOSIG RMK 1CU015 7CU025 A2990
Conditions at: RJTT (TOKYO INTL AIRPO, JP) observed 1200 UTC 24 April 2019
Temperature: 19.0°C (66°F)
Dewpoint: 16.0°C (61°F) [RH = 83%]
Pressure (altimeter): 29.88 inches Hg (1012.0 mb)
Winds: from the S (180 degrees) at 15 MPH (13 knots; 6.7 m/s)
Visibility: 6 or more miles (10+ km)
Ceiling: 2500 feet AGL
Clouds: few clouds at 1500 feet AGL
broken clouds at 2500 feet AGL
Weather: -SHRA  (light rain showers)

METAR text: RJTT 241130Z 18011KT 9999 -SHRA FEW015 SCT020 BKN030 20/16 Q1012 NOSIG RMK 1CU015 3CU020 6SC030 A2991
Conditions at: RJTT (TOKYO INTL AIRPO, JP) observed 1130 UTC 24 April 2019
Temperature: 20.0°C (68°F)
Dewpoint: 16.0°C (61°F) [RH = 78%]
Pressure (altimeter): 29.88 inches Hg (1012.0 mb)
Winds: from the S (180 degrees) at 13 MPH (11 knots; 5.7 m/s)
Visibility: 6 or more miles (10+ km)
Ceiling: 3000 feet AGL
Clouds: few clouds at 1500 feet AGL
scattered clouds at 2000 feet AGL
broken clouds at 3000 feet AGL
Weather: -SHRA  (light rain showers)

METAR text: RJTT 241100Z 18011KT 9999 FEW015 SCT025 BKN050 19/16 Q1013 NOSIG RMK 1CU015 4CU025 7SC050 A2992
Conditions at: RJTT (TOKYO INTL AIRPO, JP) observed 1100 UTC 24 April 2019
Temperature: 19.0°C (66°F)
Dewpoint: 16.0°C (61°F) [RH = 83%]
Pressure (altimeter): 29.91 inches Hg (1013.0 mb)
Winds: from the S (180 degrees) at 13 MPH (11 knots; 5.7 m/s)
Visibility: 6 or more miles (10+ km)
Ceiling: 5000 feet AGL
Clouds: few clouds at 1500 feet AGL
scattered clouds at 2500 feet AGL
broken clouds at 5000 feet AGL
Weather: no significant weather observed at this time

METAR text: RJTT 241030Z 18013KT 9999 FEW015 SCT025 BKN050 19/16 Q1013 NOSIG RMK 1CU015 3CU025 7SC050 A2991
Conditions at: RJTT (TOKYO INTL AIRPO, JP) observed 1030 UTC 24 April 2019
Temperature: 19.0°C (66°F)
Dewpoint: 16.0°C (61°F) [RH = 83%]
Pressure (altimeter): 29.91 inches Hg (1013.0 mb)
Winds: from the S (180 degrees) at 15 MPH (13 knots; 6.7 m/s)
Visibility: 6 or more miles (10+ km)
Ceiling: 5000 feet AGL
Clouds: few clouds at 1500 feet AGL
scattered clouds at 2500 feet AGL
broken clouds at 5000 feet AGL
Weather: no significant weather observed at this time

METAR text: RJTT 241000Z 18014KT 9999 -SHRA FEW015 BKN025 BKN050 19/16 Q1013 NOSIG RMK 1CU015 5CU025 7SC050 A2992
Conditions at: RJTT (TOKYO INTL AIRPO, JP) observed 1000 UTC 24 April 2019
Temperature: 19.0°C (66°F)
Dewpoint: 16.0°C (61°F) [RH = 83%]
Pressure (altimeter): 29.91 inches Hg (1013.0 mb)
Winds: from the S (180 degrees) at 16 MPH (14 knots; 7.2 m/s)
Visibility: 6 or more miles (10+ km)
Ceiling: 2500 feet AGL
Clouds: few clouds at 1500 feet AGL
broken clouds at 2500 feet AGL
broken clouds at 5000 feet AGL
Weather: -SHRA  (light rain showers)

METAR text: RJTT 240930Z 18011KT 9999 -SHRA FEW015 SCT025 BKN050 19/16 Q1013 NOSIG RMK 1CU015 4CU025 7SC050 A2992
Conditions at: RJTT (TOKYO INTL AIRPO, JP) observed 0930 UTC 24 April 2019
Temperature: 19.0°C (66°F)
Dewpoint: 16.0°C (61°F) [RH = 83%]
Pressure (altimeter): 29.91 inches Hg (1013.0 mb)
Winds: from the S (180 degrees) at 13 MPH (11 knots; 5.7 m/s)
Visibility: 6 or more miles (10+ km)
Ceiling: 5000 feet AGL
Clouds: few clouds at 1500 feet AGL
scattered clouds at 2500 feet AGL
broken clouds at 5000 feet AGL
Weather: -SHRA  (light rain showers)

METAR text: RJTT 240900Z 19012KT 9999 FEW020 SCT030 BKN050 20/16 Q1013 NOSIG RMK 1CU020 4CU030 7SC050 A2994
Conditions at: RJTT (TOKYO INTL AIRPO, JP) observed 0900 UTC 24 April 2019
Temperature: 20.0°C (68°F)
Dewpoint: 16.0°C (61°F) [RH = 78%]
Pressure (altimeter): 29.91 inches Hg (1013.0 mb)
Winds: from the S (190 degrees) at 14 MPH (12 knots; 6.2 m/s)
Visibility: 6 or more miles (10+ km)
Ceiling: 5000 feet AGL
Clouds: few clouds at 2000 feet AGL
scattered clouds at 3000 feet AGL
broken clouds at 5000 feet AGL
Weather: no significant weather observed at this time

METAR text: RJTT 240830Z 19011KT 9999 -SHRA FEW020 BKN050 20/16 Q1013 NOSIG RMK 2CU020 7SC050 A2994
Conditions at: RJTT (TOKYO INTL AIRPO, JP) observed 0830 UTC 24 April 2019
Temperature: 20.0°C (68°F)
Dewpoint: 16.0°C (61°F) [RH = 78%]
Pressure (altimeter): 29.91 inches Hg (1013.0 mb)
Winds: from the S (190 degrees) at 13 MPH (11 knots; 5.7 m/s)
Visibility: 6 or more miles (10+ km)
Ceiling: 5000 feet AGL
Clouds: few clouds at 2000 feet AGL
broken clouds at 5000 feet AGL
Weather: -SHRA  (light rain showers)

METAR text: RJTT 240800Z 19013KT 9999 -SHRA FEW020 BKN050 20/16 Q1014 NOSIG RMK 2CU020 7SC050 A2995
Conditions at: RJTT (TOKYO INTL AIRPO, JP) observed 0800 UTC 24 April 2019
Temperature: 20.0°C (68°F)
Dewpoint: 16.0°C (61°F) [RH = 78%]
Pressure (altimeter): 29.94 inches Hg (1014.0 mb)
Winds: from the S (190 degrees) at 15 MPH (13 knots; 6.7 m/s)
Visibility: 6 or more miles (10+ km)
Ceiling: 5000 feet AGL
Clouds: few clouds at 2000 feet AGL
broken clouds at 5000 feet AGL
Weather: -SHRA  (light rain showers)

METAR text: RJTT 240730Z 19015KT 9999 FEW020 BKN060 20/16 Q1014 NOSIG RMK 1CU020 7SC060 A2996
Conditions at: RJTT (TOKYO INTL AIRPO, JP) observed 0730 UTC 24 April 2019
Temperature: 20.0°C (68°F)
Dewpoint: 16.0°C (61°F) [RH = 78%]
Pressure (altimeter): 29.94 inches Hg (1014.0 mb)
Winds: from the S (190 degrees) at 17 MPH (15 knots; 7.7 m/s)
Visibility: 6 or more miles (10+ km)
Ceiling: 6000 feet AGL
Clouds: few clouds at 2000 feet AGL
broken clouds at 6000 feet AGL
Weather: no significant weather observed at this time

METAR text: RJTT 240700Z 20017KT 9999 FEW020 BKN060 21/16 Q1014 NOSIG RMK 1CU020 7SC060 A2997
Conditions at: RJTT (TOKYO INTL AIRPO, JP) observed 0700 UTC 24 April 2019
Temperature: 21.0°C (70°F)
Dewpoint: 16.0°C (61°F) [RH = 73%]
Pressure (altimeter): 29.94 inches Hg (1014.0 mb)
Winds: from the SSW (200 degrees) at 20 MPH (17 knots; 8.7 m/s)
Visibility: 6 or more miles (10+ km)
Ceiling: 6000 feet AGL
Clouds: few clouds at 2000 feet AGL
broken clouds at 6000 feet AGL
Weather: no significant weather observed at this time

METAR text: RJTT 240630Z 19015KT 9999 FEW020 BKN060 20/16 Q1015 NOSIG RMK 1CU020 7SC060 A2997
Conditions at: RJTT (TOKYO INTL AIRPO, JP) observed 0630 UTC 24 April 2019
Temperature: 20.0°C (68°F)
Dewpoint: 16.0°C (61°F) [RH = 78%]
Pressure (altimeter): 29.97 inches Hg (1015.0 mb)
Winds: from the S (190 degrees) at 17 MPH (15 knots; 7.7 m/s)
Visibility: 6 or more miles (10+ km)
Ceiling: 6000 feet AGL
Clouds: few clouds at 2000 feet AGL
broken clouds at 6000 feet AGL
Weather: no significant weather observed at this time

METAR text: RJTT 240600Z 19017KT 9999 FEW020 SCT070 BKN120 21/16 Q1015 NOSIG RMK 1CU020 3AC070 7AC120 A2997
Conditions at: RJTT (TOKYO INTL AIRPO, JP) observed 0600 UTC 24 April 2019
Temperature: 21.0°C (70°F)
Dewpoint: 16.0°C (61°F) [RH = 73%]
Pressure (altimeter): 29.97 inches Hg (1015.0 mb)
Winds: from the S (190 degrees) at 20 MPH (17 knots; 8.7 m/s)
Visibility: 6 or more miles (10+ km)
Ceiling: 12000 feet AGL
Clouds: few clouds at 2000 feet AGL
scattered clouds at 7000 feet AGL
broken clouds at 12000 feet AGL
Weather: no significant weather observed at this time

METAR text: RJTT 240530Z 19016KT 9999 FEW020 SCT070 BKN120 21/16 Q1015 NOSIG RMK 1CU020 3AC070 7AC120 A2999
Conditions at: RJTT (TOKYO INTL AIRPO, JP) observed 0530 UTC 24 April 2019
Temperature: 21.0°C (70°F)
Dewpoint: 16.0°C (61°F) [RH = 73%]
Pressure (altimeter): 29.97 inches Hg (1015.0 mb)
Winds: from the S (190 degrees) at 18 MPH (16 knots; 8.2 m/s)
Visibility: 6 or more miles (10+ km)
Ceiling: 12000 feet AGL
Clouds: few clouds at 2000 feet AGL
scattered clouds at 7000 feet AGL
broken clouds at 12000 feet AGL
Weather: no significant weather observed at this time

METAR text: RJTT 240500Z 18014KT 9999 FEW020 BKN120 21/16 Q1016 NOSIG RMK 1CU020 7AC120 A3000
Conditions at: RJTT (TOKYO INTL AIRPO, JP) observed 0500 UTC 24 April 2019
Temperature: 21.0°C (70°F)
Dewpoint: 16.0°C (61°F) [RH = 73%]
Pressure (altimeter): 30.00 inches Hg (1016.0 mb)
Winds: from the S (180 degrees) at 16 MPH (14 knots; 7.2 m/s)
Visibility: 6 or more miles (10+ km)
Ceiling: 12000 feet AGL
Clouds: few clouds at 2000 feet AGL
broken clouds at 12000 feet AGL
Weather: no significant weather observed at this time

METAR text: RJTT 240430Z 18014KT 9999 FEW015 BKN140 22/17 Q1016 NOSIG RMK 1CU015 7AC140 A3002
Conditions at: RJTT (TOKYO INTL AIRPO, JP) observed 0430 UTC 24 April 2019
Temperature: 22.0°C (72°F)
Dewpoint: 17.0°C (63°F) [RH = 73%]
Pressure (altimeter): 30.00 inches Hg (1016.0 mb)
Winds: from the S (180 degrees) at 16 MPH (14 knots; 7.2 m/s)
Visibility: 6 or more miles (10+ km)
Ceiling: 14000 feet AGL
Clouds: few clouds at 1500 feet AGL
broken clouds at 14000 feet AGL
Weather: no significant weather observed at this time

METAR text: RJTT 240400Z 19014KT 9999 FEW015 SCT080 BKN120 20/17 Q1017 NOSIG RMK 1CU015 3AC080 7AC120 A3004
Conditions at: RJTT (TOKYO INTL AIRPO, JP) observed 0400 UTC 24 April 2019
Temperature: 20.0°C (68°F)
Dewpoint: 17.0°C (63°F) [RH = 83%]
Pressure (altimeter): 30.03 inches Hg (1017.0 mb)
Winds: from the S (190 degrees) at 16 MPH (14 knots; 7.2 m/s)
Visibility: 6 or more miles (10+ km)
Ceiling: 12000 feet AGL
Clouds: few clouds at 1500 feet AGL
scattered clouds at 8000 feet AGL
broken clouds at 12000 feet AGL
Weather: no significant weather observed at this time

METAR text: RJTT 240330Z 18015KT 9999 -RA FEW015 SCT080 BKN100 20/17 Q1017 NOSIG RMK 1CU015 3AC080 7AC100 A3005
Conditions at: RJTT (TOKYO INTL AIRPO, JP) observed 0330 UTC 24 April 2019
Temperature: 20.0°C (68°F)
Dewpoint: 17.0°C (63°F) [RH = 83%]
Pressure (altimeter): 30.03 inches Hg (1017.0 mb)
Winds: from the S (180 degrees) at 17 MPH (15 knots; 7.7 m/s)
Visibility: 6 or more miles (10+ km)
Ceiling: 10000 feet AGL
Clouds: few clouds at 1500 feet AGL
scattered clouds at 8000 feet AGL
broken clouds at 10000 feet AGL
Weather: -RA  (light rain)

METAR text: RJTT 240300Z 19017KT 9999 -RA FEW015 BKN100 20/17 Q1018 NOSIG RMK 1CU015 7AC100 A3006
Conditions at: RJTT (TOKYO INTL AIRPO, JP) observed 0300 UTC 24 April 2019
Temperature: 20.0°C (68°F)
Dewpoint: 17.0°C (63°F) [RH = 83%]
Pressure (altimeter): 30.06 inches Hg (1018.0 mb)
Winds: from the S (190 degrees) at 20 MPH (17 knots; 8.7 m/s)
Visibility: 6 or more miles (10+ km)
Ceiling: 10000 feet AGL
Clouds: few clouds at 1500 feet AGL
broken clouds at 10000 feet AGL
Weather: -RA  (light rain)

METAR text: RJTT 240230Z 19017KT 9999 -RA FEW015 SCT070 BKN100 20/17 Q1018 NOSIG RMK 1CU015 3AC070 7AC100 A3007
Conditions at: RJTT (TOKYO INTL AIRPO, JP) observed 0230 UTC 24 April 2019
Temperature: 20.0°C (68°F)
Dewpoint: 17.0°C (63°F) [RH = 83%]
Pressure (altimeter): 30.06 inches Hg (1018.0 mb)
Winds: from the S (190 degrees) at 20 MPH (17 knots; 8.7 m/s)
Visibility: 6 or more miles (10+ km)
Ceiling: 10000 feet AGL
Clouds: few clouds at 1500 feet AGL
scattered clouds at 7000 feet AGL
broken clouds at 10000 feet AGL
Weather: -RA  (light rain)

METAR text: RJTT 240200Z 20017KT 9999 -RA FEW015 SCT070 BKN110 20/16 Q1018 NOSIG RMK 1CU015 4AC070 7AC110 A3008
Conditions at: RJTT (TOKYO INTL AIRPO, JP) observed 0200 UTC 24 April 2019
Temperature: 20.0°C (68°F)
Dewpoint: 16.0°C (61°F) [RH = 78%]
Pressure (altimeter): 30.06 inches Hg (1018.0 mb)
Winds: from the SSW (200 degrees) at 20 MPH (17 knots; 8.7 m/s)
Visibility: 6 or more miles (10+ km)
Ceiling: 11000 feet AGL
Clouds: few clouds at 1500 feet AGL
scattered clouds at 7000 feet AGL
broken clouds at 11000 feet AGL
Weather: -RA  (light rain)

METAR text: RJTT 240130Z 19017KT 9999 -SHRA FEW010 SCT020 BKN110 20/17 Q1018 NOSIG RMK 1CU010 3CU020 7AC110 A3008
Conditions at: RJTT (TOKYO INTL AIRPO, JP) observed 0130 UTC 24 April 2019
Temperature: 20.0°C (68°F)
Dewpoint: 17.0°C (63°F) [RH = 83%]
Pressure (altimeter): 30.06 inches Hg (1018.0 mb)
Winds: from the S (190 degrees) at 20 MPH (17 knots; 8.7 m/s)
Visibility: 6 or more miles (10+ km)
Ceiling: 11000 feet AGL
Clouds: few clouds at 1000 feet AGL
scattered clouds at 2000 feet AGL
broken clouds at 11000 feet AGL
Weather: -SHRA  (light rain showers)

METAR text: RJTT 240100Z 20014KT 9999 -SHRA FEW010 SCT015 BKN110 21/17 Q1019 NOSIG RMK 1CU010 3CU015 7AC110 A3009
Conditions at: RJTT (TOKYO INTL AIRPO, JP) observed 0100 UTC 24 April 2019
Temperature: 21.0°C (70°F)
Dewpoint: 17.0°C (63°F) [RH = 78%]
Pressure (altimeter): 30.09 inches Hg (1019.0 mb)
Winds: from the SSW (200 degrees) at 16 MPH (14 knots; 7.2 m/s)
Visibility: 6 or more miles (10+ km)
Ceiling: 11000 feet AGL
Clouds: few clouds at 1000 feet AGL
scattered clouds at 1500 feet AGL
broken clouds at 11000 feet AGL
Weather: -SHRA  (light rain showers)

METAR text: RJTT 240030Z 20013KT 9999 FEW010 BKN120 20/17 Q1018 NOSIG RMK 1CU010 7AC120 A3009
Conditions at: RJTT (TOKYO INTL AIRPO, JP) observed 0030 UTC 24 April 2019
Temperature: 20.0°C (68°F)
Dewpoint: 17.0°C (63°F) [RH = 83%]
Pressure (altimeter): 30.06 inches Hg (1018.0 mb)
Winds: from the SSW (200 degrees) at 15 MPH (13 knots; 6.7 m/s)
Visibility: 6 or more miles (10+ km)
Ceiling: 12000 feet AGL
Clouds: few clouds at 1000 feet AGL
broken clouds at 12000 feet AGL
Weather: no significant weather observed at this time

METAR text: RJTT 240000Z 19010KT 9999 FEW010 BKN120 20/16 Q1018 NOSIG RMK 1CU010 7AC120 A3009
Conditions at: RJTT (TOKYO INTL AIRPO, JP) observed 0000 UTC 24 April 2019
Temperature: 20.0°C (68°F)
Dewpoint: 16.0°C (61°F) [RH = 78%]
Pressure (altimeter): 30.06 inches Hg (1018.0 mb)
Winds: from the S (190 degrees) at 12 MPH (10 knots; 5.1 m/s)
Visibility: 6 or more miles (10+ km)
Ceiling: 12000 feet AGL
Clouds: few clouds at 1000 feet AGL
broken clouds at 12000 feet AGL
Weather: no significant weather observed at this time

METAR text: RJTT 232330Z 19008KT 9999 FEW010 BKN140 20/17 Q1018 NOSIG RMK 1CU010 7AC140 A3008
Conditions at: RJTT (TOKYO INTL AIRPO, JP) observed 2330 UTC 23 April 2019
Temperature: 20.0°C (68°F)
Dewpoint: 17.0°C (63°F) [RH = 83%]
Pressure (altimeter): 30.06 inches Hg (1018.0 mb)
Winds: from the S (190 degrees) at 9 MPH (8 knots; 4.1 m/s)
Visibility: 6 or more miles (10+ km)
Ceiling: 14000 feet AGL
Clouds: few clouds at 1000 feet AGL
broken clouds at 14000 feet AGL
Weather: no significant weather observed at this time

METAR text: RJTT 232300Z 18009KT 9999 FEW015 BKN140 20/18 Q1018 NOSIG RMK 1CU015 7AC140 A3008
Conditions at: RJTT (TOKYO INTL AIRPO, JP) observed 2300 UTC 23 April 2019
Temperature: 20.0°C (68°F)
Dewpoint: 18.0°C (64°F) [RH = 88%]
Pressure (altimeter): 30.06 inches Hg (1018.0 mb)
Winds: from the S (180 degrees) at 10 MPH (9 knots; 4.6 m/s)
Visibility: 6 or more miles (10+ km)
Ceiling: 14000 feet AGL
Clouds: few clouds at 1500 feet AGL
broken clouds at 14000 feet AGL
Weather: no significant weather observed at this time

METAR text: RJTT 232230Z 19010KT 9999 FEW010 BKN140 20/17 Q1018 NOSIG RMK 1CU010 7AC140 A3009
Conditions at: RJTT (TOKYO INTL AIRPO, JP) observed 2230 UTC 23 April 2019
Temperature: 20.0°C (68°F)
Dewpoint: 17.0°C (63°F) [RH = 83%]
Pressure (altimeter): 30.06 inches Hg (1018.0 mb)
Winds: from the S (190 degrees) at 12 MPH (10 knots; 5.1 m/s)
Visibility: 6 or more miles (10+ km)
Ceiling: 14000 feet AGL
Clouds: few clouds at 1000 feet AGL
broken clouds at 14000 feet AGL
Weather: no significant weather observed at this time

METAR text: RJTT 232200Z 19009KT 9999 FEW010 BKN170 20/17 Q1019 NOSIG RMK 1CU010 7AC170 A3010
Conditions at: RJTT (TOKYO INTL AIRPO, JP) observed 2200 UTC 23 April 2019
Temperature: 20.0°C (68°F)
Dewpoint: 17.0°C (63°F) [RH = 83%]
Pressure (altimeter): 30.09 inches Hg (1019.0 mb)
Winds: from the S (190 degrees) at 10 MPH (9 knots; 4.6 m/s)
Visibility: 6 or more miles (10+ km)
Ceiling: 17000 feet AGL
Clouds: few clouds at 1000 feet AGL
broken clouds at 17000 feet AGL
Weather: no significant weather observed at this time

METAR text: RJTT 232130Z 19009KT 9999 FEW010 SCT015 BKN170 20/17 Q1019 NOSIG RMK 1CU010 3CU015 7AC170 A3011
Conditions at: RJTT (TOKYO INTL AIRPO, JP) observed 2130 UTC 23 April 2019
Temperature: 20.0°C (68°F)
Dewpoint: 17.0°C (63°F) [RH = 83%]
Pressure (altimeter): 30.09 inches Hg (1019.0 mb)
Winds: from the S (190 degrees) at 10 MPH (9 knots; 4.6 m/s)
Visibility: 6 or more miles (10+ km)
Ceiling: 17000 feet AGL
Clouds: few clouds at 1000 feet AGL
scattered clouds at 1500 feet AGL
broken clouds at 17000 feet AGL
Weather: no significant weather observed at this time

METAR text: RJTT 232100Z 18007KT 9999 FEW010 SCT015 BKN170 19/17 Q1019 NOSIG RMK 1CU010 3CU015 7AC170 A3011
Conditions at: RJTT (TOKYO INTL AIRPO, JP) observed 2100 UTC 23 April 2019
Temperature: 19.0°C (66°F)
Dewpoint: 17.0°C (63°F) [RH = 88%]
Pressure (altimeter): 30.09 inches Hg (1019.0 mb)
Winds: from the S (180 degrees) at 8 MPH (7 knots; 3.6 m/s)
Visibility: 6 or more miles (10+ km)
Ceiling: 17000 feet AGL
Clouds: few clouds at 1000 feet AGL
scattered clouds at 1500 feet AGL
broken clouds at 17000 feet AGL
Weather: no significant weather observed at this time

METAR text: RJTT 232030Z 19008KT 9999 FEW010 SCT015 BKN070 19/17 Q1019 NOSIG RMK 1CU010 3CU015 7AC070 A3011
Conditions at: RJTT (TOKYO INTL AIRPO, JP) observed 2030 UTC 23 April 2019
Temperature: 19.0°C (66°F)
Dewpoint: 17.0°C (63°F) [RH = 88%]
Pressure (altimeter): 30.09 inches Hg (1019.0 mb)
Winds: from the S (190 degrees) at 9 MPH (8 knots; 4.1 m/s)
Visibility: 6 or more miles (10+ km)
Ceiling: 7000 feet AGL
Clouds: few clouds at 1000 feet AGL
scattered clouds at 1500 feet AGL
broken clouds at 7000 feet AGL
Weather: no significant weather observed at this time

METAR text: RJTT 232000Z 19007KT 9000 FEW010 SCT020 BKN030 19/17 Q1019 NOSIG RMK 1CU010 3CU020 5CU030 A3010
Conditions at: RJTT (TOKYO INTL AIRPO, JP) observed 2000 UTC 23 April 2019
Temperature: 19.0°C (66°F)
Dewpoint: 17.0°C (63°F) [RH = 88%]
Pressure (altimeter): 30.09 inches Hg (1019.0 mb)
Winds: from the S (190 degrees) at 8 MPH (7 knots; 3.6 m/s)
Visibility: 6 miles ( 9 km)
Ceiling: 3000 feet AGL
Clouds: few clouds at 1000 feet AGL
scattered clouds at 2000 feet AGL
broken clouds at 3000 feet AGL
Weather: no significant weather observed at this time

METAR text: RJTT 231930Z 19009KT 9999 FEW010 SCT020 BKN030 19/17 Q1019 NOSIG RMK 1CU010 3CU020 5CU030 A3010
Conditions at: RJTT (TOKYO INTL AIRPO, JP) observed 1930 UTC 23 April 2019
Temperature: 19.0°C (66°F)
Dewpoint: 17.0°C (63°F) [RH = 88%]
Pressure (altimeter): 30.09 inches Hg (1019.0 mb)
Winds: from the S (190 degrees) at 10 MPH (9 knots; 4.6 m/s)
Visibility: 6 or more miles (10+ km)
Ceiling: 3000 feet AGL
Clouds: few clouds at 1000 feet AGL
scattered clouds at 2000 feet AGL
broken clouds at 3000 feet AGL
Weather: no significant weather observed at this time

METAR text: RJTT 231900Z 19009KT 9999 FEW010 SCT020 BKN025 19/17 Q1019 TEMPO FEW008 BKN012
Conditions at: RJTT (TOKYO INTL AIRPO, JP) observed 1900 UTC 23 April 2019
Temperature: 19.0°C (66°F)
Dewpoint: 17.0°C (63°F) [RH = 88%]
Pressure (altimeter): 30.09 inches Hg (1019.0 mb)
Winds: from the S (190 degrees) at 10 MPH (9 knots; 4.6 m/s)
Visibility: 6 or more miles (10+ km)
Ceiling: 2500 feet AGL
Clouds: few clouds at 1000 feet AGL
scattered clouds at 2000 feet AGL
broken clouds at 2500 feet AGL
Weather: no significant weather observed at this time

METAR text: RJTT 231830Z 18008KT 9999 -SHRA FEW010 SCT012 BKN020 19/17 Q1019 TEMPO FEW008 BKN012 RMK 1CU010 4CU012 6CU020 A3010
Conditions at: RJTT (TOKYO INTL AIRPO, JP) observed 1830 UTC 23 April 2019
Temperature: 19.0°C (66°F)
Dewpoint: 17.0°C (63°F) [RH = 88%]
Pressure (altimeter): 30.09 inches Hg (1019.0 mb)
Winds: from the S (180 degrees) at 9 MPH (8 knots; 4.1 m/s)
Visibility: 6 or more miles (10+ km)
Ceiling: 2000 feet AGL
Clouds: few clouds at 1000 feet AGL
scattered clouds at 1200 feet AGL
broken clouds at 2000 feet AGL
Weather: -SHRA  (light rain showers)

METAR text: RJTT 231800Z 18006KT 9999 VCSH FEW010 SCT012 BKN020 19/17 Q1019 TEMPO FEW008 BKN012 RMK 1CU010 4CU012 7CU020 A3010
Conditions at: RJTT (TOKYO INTL AIRPO, JP) observed 1800 UTC 23 April 2019
Temperature: 19.0°C (66°F)
Dewpoint: 17.0°C (63°F) [RH = 88%]
Pressure (altimeter): 30.09 inches Hg (1019.0 mb)
Winds: from the S (180 degrees) at 7 MPH (6 knots; 3.1 m/s)
Visibility: 6 or more miles (10+ km)
Ceiling: 2000 feet AGL
Clouds: few clouds at 1000 feet AGL
scattered clouds at 1200 feet AGL
broken clouds at 2000 feet AGL
Weather: VCSH  (showers in vicinity)

METAR text: RJTT 231730Z 18006KT 9999 -SHRA FEW010 SCT013 BKN018 19/17 Q1019 TEMPO FEW008 BKN012
Conditions at: RJTT (TOKYO INTL AIRPO, JP) observed 1730 UTC 23 April 2019
Temperature: 19.0°C (66°F)
Dewpoint: 17.0°C (63°F) [RH = 88%]
Pressure (altimeter): 30.09 inches Hg (1019.0 mb)
Winds: from the S (180 degrees) at 7 MPH (6 knots; 3.1 m/s)
Visibility: 6 or more miles (10+ km)
Ceiling: 1800 feet AGL
Clouds: few clouds at 1000 feet AGL
scattered clouds at 1300 feet AGL
broken clouds at 1800 feet AGL
Weather: -SHRA  (light rain showers)

METAR text: RJTT 231700Z 18006KT 9999 -SHRA FEW015 BKN020 18/16 Q1019 TEMPO FEW008 BKN014 RMK 1CU015 7CU020 A3010
Conditions at: RJTT (TOKYO INTL AIRPO, JP) observed 1700 UTC 23 April 2019
Temperature: 18.0°C (64°F)
Dewpoint: 16.0°C (61°F) [RH = 88%]
Pressure (altimeter): 30.09 inches Hg (1019.0 mb)
Winds: from the S (180 degrees) at 7 MPH (6 knots; 3.1 m/s)
Visibility: 6 or more miles (10+ km)
Ceiling: 2000 feet AGL
Clouds: few clouds at 1500 feet AGL
broken clouds at 2000 feet AGL
Weather: -SHRA  (light rain showers)

METAR text: RJTT 231630Z 17005KT 9999 -SHRA FEW015 BKN020 18/16 Q1019 NOSIG RMK 1CU015 7CU020 A3011
Conditions at: RJTT (TOKYO INTL AIRPO, JP) observed 1630 UTC 23 April 2019
Temperature: 18.0°C (64°F)
Dewpoint: 16.0°C (61°F) [RH = 88%]
Pressure (altimeter): 30.09 inches Hg (1019.0 mb)
Winds: from the S (170 degrees) at 6 MPH (5 knots; 2.6 m/s)
Visibility: 6 or more miles (10+ km)
Ceiling: 2000 feet AGL
Clouds: few clouds at 1500 feet AGL
broken clouds at 2000 feet AGL
Weather: -SHRA  (light rain showers)

METAR text: RJTT 231600Z 18006KT 9999 -SHRA FEW015 BKN020 18/16 Q1019 NOSIG RMK 1CU015 6CU020 A3012
Conditions at: RJTT (TOKYO INTL AIRPO, JP) observed 1600 UTC 23 April 2019
Temperature: 18.0°C (64°F)
Dewpoint: 16.0°C (61°F) [RH = 88%]
Pressure (altimeter): 30.09 inches Hg (1019.0 mb)
Winds: from the S (180 degrees) at 7 MPH (6 knots; 3.1 m/s)
Visibility: 6 or more miles (10+ km)
Ceiling: 2000 feet AGL
Clouds: few clouds at 1500 feet AGL
broken clouds at 2000 feet AGL
Weather: -SHRA  (light rain showers)

METAR text: RJTT 231530Z 17006KT 9999 VCSH FEW015 BKN020 BKN/// 18/15 Q1020 NOSIG
Conditions at: RJTT (TOKYO INTL AIRPO, JP) observed 1530 UTC 23 April 2019
Temperature: 18.0°C (64°F)
Dewpoint: 15.0°C (59°F) [RH = 83%]
Pressure (altimeter): 30.12 inches Hg (1020.0 mb)
Winds: from the S (170 degrees) at 7 MPH (6 knots; 3.1 m/s)
Visibility: 6 or more miles (10+ km)
Ceiling: 2000 feet AGL
Clouds: few clouds at 1500 feet AGL
broken clouds at 2000 feet AGL
Weather: VCSH  (showers in vicinity)

METAR text: RJTT 231500Z 17006KT 9999 VCSH FEW020 BKN060 BKN/// 18/15 Q1020 NOSIG RMK 1CU020 5SC060 A3013
Conditions at: RJTT (TOKYO INTL AIRPO, JP) observed 1500 UTC 23 April 2019
Temperature: 18.0°C (64°F)
Dewpoint: 15.0°C (59°F) [RH = 83%]
Pressure (altimeter): 30.12 inches Hg (1020.0 mb)
Winds: from the S (170 degrees) at 7 MPH (6 knots; 3.1 m/s)
Visibility: 6 or more miles (10+ km)
Ceiling: 6000 feet AGL
Clouds: few clouds at 2000 feet AGL
broken clouds at 6000 feet AGL
Weather: VCSH  (showers in vicinity)

METAR text: RJTT 231430Z 17007KT 9999 FEW020 BKN/// 18/15 Q1020 NOSIG
Conditions at: RJTT (TOKYO INTL AIRPO, JP) observed 1430 UTC 23 April 2019
Temperature: 18.0°C (64°F)
Dewpoint: 15.0°C (59°F) [RH = 83%]
Pressure (altimeter): 30.12 inches Hg (1020.0 mb)
Winds: from the S (170 degrees) at 8 MPH (7 knots; 3.6 m/s)
Visibility: 6 or more miles (10+ km)
Ceiling: at least 12,000 feet AGL
Clouds: few clouds at 2000 feet AGL
Weather: no significant weather observed at this time

METAR text: RJTT 231400Z 17008KT 9999 FEW020 SCT200 BKN/// 18/15 Q1020 NOSIG
Conditions at: RJTT (TOKYO INTL AIRPO, JP) observed 1400 UTC 23 April 2019
Temperature: 18.0°C (64°F)
Dewpoint: 15.0°C (59°F) [RH = 83%]
Pressure (altimeter): 30.12 inches Hg (1020.0 mb)
Winds: from the S (170 degrees) at 9 MPH (8 knots; 4.1 m/s)
Visibility: 6 or more miles (10+ km)
Ceiling: at least 12,000 feet AGL
Clouds: few clouds at 2000 feet AGL
scattered clouds at 20000 feet AGL
Weather: no significant weather observed at this time

METAR text: RJTT 231330Z 16009KT 9999 FEW020 SCT030 BKN/// 18/14 Q1020 NOSIG RMK 1CU020 3CU030 A3014
Conditions at: RJTT (TOKYO INTL AIRPO, JP) observed 1330 UTC 23 April 2019
Temperature: 18.0°C (64°F)
Dewpoint: 14.0°C (57°F) [RH = 77%]
Pressure (altimeter): 30.12 inches Hg (1020.0 mb)
Winds: from the SSE (160 degrees) at 10 MPH (9 knots; 4.6 m/s)
Visibility: 6 or more miles (10+ km)
Ceiling: at least 12,000 feet AGL
Clouds: few clouds at 2000 feet AGL
scattered clouds at 3000 feet AGL
Weather: no significant weather observed at this time

METAR text: RJTT 231300Z 17007KT 9999 FEW020 SCT030 BKN200 18/14 Q1020 NOSIG RMK 1CU020 3CU030 5AC200 A3014
Conditions at: RJTT (TOKYO INTL AIRPO, JP) observed 1300 UTC 23 April 2019
Temperature: 18.0°C (64°F)
Dewpoint: 14.0°C (57°F) [RH = 77%]
Pressure (altimeter): 30.12 inches Hg (1020.0 mb)
Winds: from the S (170 degrees) at 8 MPH (7 knots; 3.6 m/s)
Visibility: 6 or more miles (10+ km)
Ceiling: 20000 feet AGL
Clouds: few clouds at 2000 feet AGL
scattered clouds at 3000 feet AGL
broken clouds at 20000 feet AGL
Weather: no significant weather observed at this time

METAR text: RJTT 231230Z 17007KT 9999 FEW020 SCT200 BKN/// 18/14 Q1021 NOSIG
Conditions at: RJTT (TOKYO INTL AIRPO, JP) observed 1230 UTC 23 April 2019
Temperature: 18.0°C (64°F)
Dewpoint: 14.0°C (57°F) [RH = 77%]
Pressure (altimeter): 30.15 inches Hg (1021.0 mb)
Winds: from the S (170 degrees) at 8 MPH (7 knots; 3.6 m/s)
Visibility: 6 or more miles (10+ km)
Ceiling: at least 12,000 feet AGL
Clouds: few clouds at 2000 feet AGL
scattered clouds at 20000 feet AGL
Weather: no significant weather observed at this time

Forecast for: RJTT (TOKYO INTL AIRPO, JP)
Text: TAF RJTT 242306Z 2500/2606 20010KT 9999 FEW010 BKN040
Forecast period: 0000 to 0100 UTC 25 April 2019
Forecast type: FROM: standard forecast or significant change
Winds: from the SSW (200 degrees) at 12 MPH (10 knots; 5.1 m/s)
Visibility: 6 or more miles 10+ km)
Ceiling: 4000 feet AGL
Clouds: few clouds at 1000 feet AGL
broken clouds at 4000 feet AGL
Weather: no significant weather forecast for this period
Text: BECMG 2501/2503 10005KT
Forecast period: 0100 to 1200 UTC 25 April 2019
Forecast type: BECOMING: Conditions expected to become as follows by 0300 UTC 25 April 2019
Winds: from the E (100 degrees) at 6 MPH (5 knots; 2.6 m/s)
Visibility: 6 or more miles 10+ km)
Ceiling: 4000 feet AGL
Clouds: few clouds at 1000 feet AGL
broken clouds at 4000 feet AGL
Weather: no significant weather forecast for this period
Text: BECMG 2512/2515 03008KT
Forecast period: 1200 UTC 25 April 2019 to 0000 UTC 26 April 2019
Forecast type: BECOMING: Conditions expected to become as follows by 1500 UTC 25 April 2019
Winds: from the NNE (30 degrees) at 9 MPH (8 knots; 4.1 m/s)
Visibility: 6 or more miles 10+ km)
Ceiling: 4000 feet AGL
Clouds: few clouds at 1000 feet AGL
broken clouds at 4000 feet AGL
Weather: no significant weather forecast for this period
Text: TEMPO 2515/2521 FEW005 BKN008
Forecast period: 1500 to 2100 UTC 25 April 2019
Forecast type: TEMPORARY: The following changes expected for less than half the time period
Visibility: missing
Ceiling: 800 feet AGL
Clouds: few clouds at 500 feet AGL
broken clouds at 800 feet AGL
Weather: no significant weather forecast for this period
Text: BECMG 2600/2603 08014KT
Forecast period: 0000 to 0600 UTC 26 April 2019
Forecast type: BECOMING: Conditions expected to become as follows by 0300 UTC 26 April 2019
Winds: from the E (80 degrees) at 16 MPH (14 knots; 7.2 m/s)
Visibility: 6 or more miles 10+ km)
Ceiling: 4000 feet AGL
Clouds: few clouds at 1000 feet AGL
broken clouds at 4000 feet AGL
Weather: no significant weather forecast for this period
Text: TEMPO 2603/2606 FEW005 BKN008
Forecast period: 0300 to 0600 UTC 26 April 2019
Forecast type: TEMPORARY: The following changes expected for less than half the time period
Visibility: missing
Ceiling: 800 feet AGL
Clouds: few clouds at 500 feet AGL
broken clouds at 800 feet AGL
Weather: no significant weather forecast for this period